Time;durP1;ratioP1;P1;durP2;ratioP2;P2;SDS_P1;SDS_P2;PMS_P1;PMS_P2;Temp;Humidity;BMP_temperature;BMP_pressure;BME280_temperature;BME280_humidity;BME280_pressure;Samples;Min_cycle;Max_cycle;Signal;HPM_P1;HPM_P2
2021/11/23 00:01:23;;;;;;;126.45;56.50;;;;;;;9.25;76.80;99833.97;5050392;28;20032;-77
2021/11/23 00:03:49;;;;;;;121.00;58.08;;;;;;;9.17;77.67;99839.16;5056847;28;20082;-76
2021/11/23 00:06:16;;;;;;;119.28;56.72;;;;;;;9.15;78.28;99841.13;5057307;28;20057;-77
2021/11/23 00:08:41;;;;;;;120.63;54.47;;;;;;;9.35;77.38;99842.66;5052669;28;20120;-76
2021/11/23 00:11:07;;;;;;;126.85;55.88;;;;;;;9.37;77.17;99843.34;5051911;28;20029;-76
2021/11/23 00:13:33;;;;;;;125.22;58.78;;;;;;;9.30;77.56;99839.63;5050577;28;20044;-76
2021/11/23 00:15:58;;;;;;;132.52;56.78;;;;;;;9.32;77.46;99835.03;5050909;28;20037;-75
2021/11/23 00:18:24;;;;;;;125.30;56.90;;;;;;;9.34;77.44;99840.97;5045900;28;20041;-74
2021/11/23 00:20:50;;;;;;;119.40;57.88;;;;;;;9.34;77.77;99838.34;5047529;28;20041;-75
2021/11/23 00:23:16;;;;;;;119.57;57.70;;;;;;;9.32;77.77;99835.03;5045569;28;20033;-75
2021/11/23 00:25:42;;;;;;;124.82;55.13;;;;;;;9.41;77.12;99842.06;5057520;28;20037;-76
2021/11/23 00:28:09;;;;;;;116.10;55.38;;;;;;;9.31;78.49;99840.44;5049047;28;20334;-76
2021/11/23 00:30:34;;;;;;;114.15;56.38;;;;;;;9.19;79.01;99837.22;5057515;28;20044;-77
2021/11/23 00:33:00;;;;;;;126.30;59.30;;;;;;;9.30;78.89;99847.56;5055756;28;20104;-77
2021/11/23 00:35:26;;;;;;;124.30;57.92;;;;;;;9.17;79.02;99844.47;5050147;28;20041;-77
2021/11/23 00:37:52;;;;;;;113.85;55.67;;;;;;;8.91;78.96;99841.72;5050111;28;20048;-77
2021/11/23 00:40:20;;;;;;;108.80;53.72;;;;;;;8.92;79.21;99844.22;5053304;28;20036;-77
2021/11/23 00:42:46;;;;;;;115.50;52.60;;;;;;;9.07;78.56;99843.69;5054985;28;20032;-77
2021/11/23 00:45:12;;;;;;;121.57;55.25;;;;;;;8.99;79.35;99846.25;5052632;28;20300;-75
2021/11/23 00:47:39;;;;;;;119.03;55.65;;;;;;;9.26;78.68;99848.84;5047471;28;20044;-75
2021/11/23 00:50:06;;;;;;;123.63;56.72;;;;;;;9.37;78.12;99869.78;5055180;28;20056;-76
2021/11/23 00:52:32;;;;;;;123.25;55.58;;;;;;;9.36;78.04;99854.03;5052313;28;20033;-77
2021/11/23 00:54:58;;;;;;;127.22;56.92;;;;;;;9.42;78.05;99859.59;5053348;28;20047;-76
2021/11/23 00:57:23;;;;;;;114.88;53.97;;;;;;;9.42;77.58;99856.94;5048688;28;20124;-77
2021/11/23 00:59:49;;;;;;;135.20;57.83;;;;;;;8.68;77.86;99763.91;5049851;28;20137;-76
2021/11/23 01:02:14;;;;;;;143.82;59.03;;;;;;;9.28;78.64;99866.19;5054934;28;20024;-77
2021/11/23 01:04:40;;;;;;;130.27;56.67;;;;;;;9.38;77.89;99868.81;5049701;28;20104;-76
2021/11/23 01:07:05;;;;;;;117.80;55.22;;;;;;;9.43;77.45;99866.53;5050962;28;20093;-77
2021/11/23 01:09:31;;;;;;;120.07;53.75;;;;;;;9.35;77.97;99870.88;5050719;28;20041;-77
2021/11/23 01:11:57;;;;;;;114.07;54.15;;;;;;;9.23;78.45;99849.97;5055541;28;20053;-78
2021/11/23 01:14:22;;;;;;;111.13;54.08;;;;;;;9.29;78.12;99852.00;5048771;28;20116;-77
2021/11/23 01:16:49;;;;;;;112.90;51.65;;;;;;;9.17;78.17;99853.22;5050986;28;20052;-75
2021/11/23 01:19:18;;;;;;;109.95;49.85;;;;;;;9.04;78.47;99851.91;5049393;28;20261;-75
2021/11/23 01:21:44;;;;;;;111.80;52.10;;;;;;;8.96;78.37;99850.03;5049332;28;20127;-77
2021/11/23 01:24:11;;;;;;;114.45;53.45;;;;;;;8.96;79.10;99844.75;5051454;28;20040;-77
2021/11/23 01:26:37;;;;;;;194.90;62.60;;;;;;;8.99;78.84;99839.16;5052050;28;20036;-77
2021/11/23 01:29:04;;;;;;;166.80;57.97;;;;;;;9.11;78.53;99848.53;5046037;28;20083;-76
2021/11/23 01:31:30;;;;;;;149.32;57.00;;;;;;;9.10;79.25;99846.03;5052737;28;20036;-76
2021/11/23 01:33:56;;;;;;;159.65;59.15;;;;;;;8.97;79.13;99851.69;5054271;28;20036;-77
2021/11/23 01:36:21;;;;;;;153.52;55.90;;;;;;;8.98;79.28;99839.31;5051862;28;20054;-77
2021/11/23 01:38:47;;;;;;;123.10;52.03;;;;;;;9.01;79.60;99837.22;5051286;28;20157;-75
2021/11/23 01:41:12;;;;;;;100.82;48.35;;;;;;;9.13;79.25;99853.66;5052720;28;20031;-76
2021/11/23 01:43:38;;;;;;;94.53;45.13;;;;;;;9.20;78.43;99847.63;5045639;28;20262;-76
2021/11/23 01:46:05;;;;;;;116.40;48.22;;;;;;;9.28;77.85;99844.22;5044514;28;20041;-77
2021/11/23 01:48:32;;;;;;;109.88;46.22;;;;;;;9.24;78.75;99840.22;5046994;28;20078;-75
2021/11/23 01:50:58;;;;;;;91.93;44.50;;;;;;;9.40;78.00;99842.22;5045124;28;20075;-75
2021/11/23 01:53:23;;;;;;;118.00;47.63;;;;;;;9.32;78.30;99842.94;5053423;28;20117;-76
2021/11/23 01:55:49;;;;;;;116.35;47.80;;;;;;;9.36;78.32;99841.66;5058875;28;20390;-75
2021/11/23 01:58:16;;;;;;;134.68;50.53;;;;;;;9.36;77.92;99836.38;5056093;28;20130;-76
2021/11/23 02:00:43;;;;;;;162.25;49.83;;;;;;;9.41;77.86;99847.34;5047568;28;20033;-77
2021/11/23 02:03:09;;;;;;;117.35;43.55;;;;;;;9.40;78.48;99842.22;5047589;28;20044;-76
2021/11/23 02:05:35;;;;;;;90.95;38.95;;;;;;;9.33;78.71;99843.78;5055440;28;20025;-77
2021/11/23 02:08:02;;;;;;;74.10;36.20;;;;;;;9.40;78.29;99836.94;5051551;28;20026;-77
2021/11/23 02:10:28;;;;;;;78.55;33.33;;;;;;;9.60;77.04;99847.19;5051579;28;20071;-77
2021/11/23 02:12:54;;;;;;;91.57;34.60;;;;;;;9.46;78.15;99844.25;5047684;28;20033;-77
2021/11/23 02:15:20;;;;;;;73.22;33.15;;;;;;;9.32;78.82;99847.41;5047434;28;20259;-75
2021/11/23 02:17:47;;;;;;;75.60;34.38;;;;;;;9.33;78.81;99855.19;5052644;28;20032;-75
2021/11/23 02:20:17;;;;;;;79.32;34.00;;;;;;;9.30;79.14;99850.19;5048856;28;20033;-76
2021/11/23 02:22:43;;;;;;;69.13;32.92;;;;;;;9.24;79.66;99848.16;5048970;28;20049;-76
2021/11/23 02:25:09;;;;;;;71.70;33.97;;;;;;;9.20;80.08;99850.28;5044469;28;20208;-77
2021/11/23 02:27:35;;;;;;;58.63;29.40;;;;;;;9.28;79.78;99855.63;5052691;28;20055;-76
2021/11/23 02:30:01;;;;;;;63.50;31.33;;;;;;;9.25;79.36;99849.81;5049489;28;20100;-77
2021/11/23 02:32:39;;;;;;;57.63;30.73;;;;;;;9.32;79.45;99844.75;5049479;28;20349;-76
2021/11/23 02:35:05;;;;;;;61.60;30.73;;;;;;;9.29;78.97;99843.25;5057188;28;20049;-76
2021/11/23 02:37:31;;;;;;;58.00;30.10;;;;;;;9.42;78.84;99856.13;5053320;28;20368;-76
2021/11/23 02:39:56;;;;;;;65.90;33.83;;;;;;;9.41;78.50;99842.06;5047559;28;20096;-77
2021/11/23 02:42:21;;;;;;;79.32;37.97;;;;;;;9.47;78.57;99840.63;5044378;28;20040;-77
2021/11/23 02:44:47;;;;;;;78.70;38.05;;;;;;;9.46;78.43;99846.91;5046270;28;20112;-75
2021/11/23 02:47:12;;;;;;;87.70;43.30;;;;;;;9.45;78.25;99854.00;5048487;28;20398;-75
2021/11/23 02:49:38;;;;;;;87.78;42.45;;;;;;;9.38;78.42;99857.41;5047244;28;20267;-77
2021/11/23 02:52:08;;;;;;;106.15;46.72;;;;;;;9.40;78.48;99858.91;5045426;28;20319;-78
2021/11/23 02:54:35;;;;;;;102.70;45.28;;;;;;;9.44;78.44;99860.25;5048292;28;20040;-77
2021/11/23 02:57:00;;;;;;;88.25;44.42;;;;;;;9.38;78.77;99857.41;5050671;28;20044;-78
2021/11/23 02:59:26;;;;;;;96.35;45.53;;;;;;;9.31;78.58;99848.38;5047207;28;20096;-75
2021/11/23 03:01:51;;;;;;;96.93;45.55;;;;;;;9.37;78.19;99851.28;5047678;28;20300;-76
2021/11/23 03:04:17;;;;;;;97.75;45.22;;;;;;;9.32;78.29;99858.81;5043782;28;20244;-76
2021/11/23 03:06:43;;;;;;;90.53;43.33;;;;;;;9.29;78.00;99852.00;5049604;28;20037;-76
2021/11/23 03:09:08;;;;;;;85.63;44.17;;;;;;;9.26;77.27;99848.84;5053734;28;20047;-76
2021/11/23 03:11:34;;;;;;;87.18;43.83;;;;;;;9.17;77.66;99849.75;5045836;28;20032;-77
2021/11/23 03:13:59;;;;;;;94.05;45.20;;;;;;;9.07;78.43;99844.53;5048485;28;20059;-75
2021/11/23 03:16:25;;;;;;;91.18;46.80;;;;;;;9.05;78.88;99843.84;5048192;28;20040;-75
2021/11/23 03:18:50;;;;;;;105.75;48.05;;;;;;;8.80;79.23;99808.44;5046928;28;20040;-78
2021/11/23 03:21:15;;;;;;;97.78;45.58;;;;;;;9.07;79.34;99841.88;5046672;28;20075;-76
2021/11/23 03:23:41;;;;;;;93.50;45.22;;;;;;;9.12;78.88;99841.44;5052357;28;20074;-77
2021/11/23 03:26:06;;;;;;;95.63;43.35;;;;;;;9.27;78.68;99845.22;5052239;28;20472;-77
2021/11/23 03:28:32;;;;;;;93.55;43.08;;;;;;;9.13;78.61;99836.00;5052825;28;20025;-76
2021/11/23 03:30:58;;;;;;;89.40;44.80;;;;;;;9.16;78.82;99850.72;5049594;28;20363;-77
2021/11/23 03:33:23;;;;;;;89.55;46.03;;;;;;;8.87;79.99;99845.63;5051123;28;20311;-75
2021/11/23 03:35:48;;;;;;;94.30;45.53;;;;;;;8.90;80.58;99835.59;5049806;28;20204;-77
2021/11/23 03:38:15;;;;;;;94.05;44.22;;;;;;;9.24;78.73;99848.16;5053535;28;20033;-76
2021/11/23 03:40:43;;;;;;;95.47;44.72;;;;;;;9.17;79.02;99853.22;5052090;28;20051;-76
2021/11/23 03:43:10;;;;;;;89.47;43.65;;;;;;;9.27;78.83;99834.66;5051399;28;20524;-75
2021/11/23 03:45:36;;;;;;;93.93;45.22;;;;;;;9.23;78.98;99835.94;5058435;28;20041;-75
2021/11/23 03:48:03;;;;;;;89.57;42.92;;;;;;;9.13;79.56;99830.72;5049244;28;20037;-75
2021/11/23 03:50:29;;;;;;;94.65;46.88;;;;;;;9.26;78.42;99848.84;5061561;28;20223;-77
2021/11/23 03:52:56;;;;;;;94.50;44.40;;;;;;;9.25;78.44;99842.72;5058514;28;20096;-77
2021/11/23 03:55:22;;;;;;;84.85;42.92;;;;;;;9.20;78.78;99855.56;5049838;28;20054;-76
2021/11/23 03:57:49;;;;;;;89.18;42.30;;;;;;;9.14;79.60;99853.50;5050275;28;20369;-77
2021/11/23 04:00:18;;;;;;;84.82;42.30;;;;;;;9.00;80.67;99850.56;5053817;28;20079;-77
2021/11/23 04:02:45;;;;;;;88.95;42.33;;;;;;;9.19;79.27;99847.78;5054069;28;20059;-77
2021/11/23 04:05:11;;;;;;;89.40;41.75;;;;;;;9.01;80.64;99858.34;5052541;28;20107;-77
2021/11/23 04:07:40;;;;;;;81.13;40.45;;;;;;;9.16;80.08;99848.91;5052093;28;20036;-76
2021/11/23 04:10:07;;;;;;;83.72;41.22;;;;;;;8.97;81.02;99849.03;5048795;28;20037;-76
2021/11/23 04:12:32;;;;;;;83.07;42.08;;;;;;;9.17;80.02;99849.75;5053337;28;20484;-75
2021/11/23 04:14:58;;;;;;;84.72;41.47;;;;;;;9.27;79.08;99861.91;5054491;28;20048;-75
2021/11/23 04:17:23;;;;;;;91.80;45.28;;;;;;;9.24;78.83;99845.50;5051149;28;20039;-76
2021/11/23 04:19:48;;;;;;;96.85;46.72;;;;;;;9.22;78.93;99850.13;5050432;28;20069;-76
2021/11/23 04:22:14;;;;;;;89.70;44.20;;;;;;;9.06;79.58;99848.16;5055622;28;20029;-76
2021/11/23 04:24:39;;;;;;;86.30;43.55;;;;;;;9.11;79.42;99855.63;5054672;28;20041;-77
2021/11/23 04:27:05;;;;;;;90.90;45.58;;;;;;;9.05;79.61;99846.50;5047094;28;20124;-76
2021/11/23 04:29:31;;;;;;;85.10;42.38;;;;;;;8.69;81.00;99821.00;5049088;28;20076;-77
2021/11/23 04:31:56;;;;;;;98.20;43.03;;;;;;;8.91;81.22;99852.28;5053994;28;20029;-77
2021/11/23 04:34:22;;;;;;;83.68;41.85;;;;;;;9.00;80.72;99856.66;5047688;28;20049;-76
2021/11/23 04:36:48;;;;;;;88.43;43.70;;;;;;;9.01;80.23;99845.13;5057827;28;20033;-77
2021/11/23 04:39:13;;;;;;;94.65;42.85;;;;;;;9.09;80.44;99857.59;5050152;28;20049;-77
2021/11/23 04:41:40;;;;;;;90.30;42.65;;;;;;;9.26;79.19;99852.31;5047068;28;20032;-75
2021/11/23 04:44:06;;;;;;;83.85;41.47;;;;;;;9.17;79.76;99858.50;5051647;28;20346;-75
2021/11/23 04:46:32;;;;;;;110.40;44.95;;;;;;;9.22;79.43;99858.88;5050738;28;20039;-76
2021/11/23 04:48:58;;;;;;;94.65;42.60;;;;;;;9.25;78.29;99853.28;5051919;28;20045;-76
2021/11/23 04:51:23;;;;;;;93.35;44.03;;;;;;;9.19;79.26;99864.47;5052932;28;20070;-77
2021/11/23 04:53:49;;;;;;;98.00;45.58;;;;;;;9.19;79.11;99867.09;5049086;28;20037;-77
2021/11/23 04:56:15;;;;;;;101.82;47.22;;;;;;;9.23;79.30;99871.09;5051509;28;20218;-76
2021/11/23 04:58:40;;;;;;;103.03;47.10;;;;;;;9.25;79.36;99865.66;5053415;28;20334;-76
2021/11/23 05:01:06;;;;;;;95.53;46.20;;;;;;;9.27;79.00;99880.41;5052577;28;20021;-75
2021/11/23 05:03:32;;;;;;;108.80;47.13;;;;;;;9.28;79.03;99878.59;5050259;28;20045;-76
2021/11/23 05:05:57;;;;;;;98.85;46.30;;;;;;;9.19;79.20;99875.03;5047378;28;20038;-76
2021/11/23 05:08:23;;;;;;;105.55;50.28;;;;;;;9.23;79.08;99872.91;5044703;28;20192;-76
2021/11/23 05:10:48;;;;;;;110.30;48.03;;;;;;;9.26;78.75;99875.25;5050249;28;20060;-77
2021/11/23 05:13:14;;;;;;;90.10;46.33;;;;;;;9.23;78.96;99870.28;5050781;28;20078;-75
2021/11/23 05:15:39;;;;;;;96.40;48.10;;;;;;;9.24;78.53;99877.22;5051654;28;20052;-75
2021/11/23 05:18:05;;;;;;;95.53;47.05;;;;;;;9.25;78.55;99877.06;5051215;28;20195;-77
2021/11/23 05:20:30;;;;;;;100.50;47.05;;;;;;;9.25;78.53;99869.16;5051246;28;20033;-76
2021/11/23 05:22:56;;;;;;;97.32;47.22;;;;;;;9.17;79.38;99879.63;5052803;28;20258;-77
2021/11/23 05:25:21;;;;;;;90.85;46.25;;;;;;;9.17;78.83;99882.28;5048102;28;20036;-77
2021/11/23 05:27:47;;;;;;;99.88;47.58;;;;;;;9.01;79.53;99868.91;5051164;28;20036;-76
2021/11/23 05:30:13;;;;;;;95.35;47.28;;;;;;;8.88;79.12;99842.84;5044042;28;20075;-76
2021/11/23 05:32:41;;;;;;;99.63;45.25;;;;;;;9.03;80.04;99890.72;5051211;28;20045;-76
2021/11/23 05:35:07;;;;;;;112.80;56.92;;;;;;;9.05;80.35;99888.75;5049293;28;20047;-77
2021/11/23 05:37:32;;;;;;;112.00;56.88;;;;;;;9.13;80.27;99888.84;5045673;28;20033;-77
2021/11/23 05:39:58;;;;;;;103.93;53.50;;;;;;;9.01;80.02;99858.34;5044269;28;20110;-76
2021/11/23 05:42:23;;;;;;;126.90;58.00;;;;;;;9.06;80.90;99893.06;5049031;28;20033;-75
2021/11/23 05:44:48;;;;;;;117.97;56.83;;;;;;;9.26;79.39;99886.66;5045791;28;20045;-74
2021/11/23 05:47:14;;;;;;;125.68;57.78;;;;;;;9.38;79.55;99891.75;5047216;28;20257;-76
2021/11/23 05:49:41;;;;;;;105.20;52.15;;;;;;;9.40;79.48;99901.19;5049901;28;20048;-76
2021/11/23 05:52:07;;;;;;;112.78;53.60;;;;;;;9.32;80.26;99908.19;5045961;28;20200;-76
2021/11/23 05:54:32;;;;;;;99.10;50.88;;;;;;;9.32;80.14;99898.44;5051144;28;20068;-77
2021/11/23 05:56:58;;;;;;;87.93;44.58;;;;;;;9.32;80.27;99910.81;5045198;28;20041;-76
2021/11/23 05:59:23;;;;;;;99.40;45.50;;;;;;;9.42;79.92;99909.81;5052678;28;20112;-77
2021/11/23 06:01:49;;;;;;;93.32;47.33;;;;;;;9.30;80.79;99924.19;5046286;28;20043;-77
2021/11/23 06:04:14;;;;;;;105.18;53.70;;;;;;;9.32;81.00;99918.75;5052340;28;20096;-75
2021/11/23 06:06:40;;;;;;;114.70;56.15;;;;;;;9.42;80.54;99924.81;5047801;28;20107;-75
2021/11/23 06:09:06;;;;;;;109.45;59.08;;;;;;;9.45;79.98;99913.94;5048342;28;20059;-76
2021/11/23 06:11:34;;;;;;;133.45;61.63;;;;;;;9.56;79.78;99932.22;5048752;28;20036;-76
2021/11/23 06:14:01;;;;;;;116.03;55.13;;;;;;;9.46;80.87;99927.03;5051180;28;20036;-76
2021/11/23 06:16:29;;;;;;;105.68;53.33;;;;;;;9.53;80.64;99929.88;5050743;28;20090;-75
2021/11/23 06:18:54;;;;;;;89.35;40.75;;;;;;;9.46;80.61;99936.75;5046555;28;20099;-75
2021/11/23 06:21:20;;;;;;;109.32;47.65;;;;;;;9.27;81.69;99942.97;5047500;28;20101;-76
2021/11/23 06:23:47;;;;;;;90.65;43.85;;;;;;;8.91;83.63;99942.91;5047491;28;20345;-76
2021/11/23 06:26:12;;;;;;;100.22;47.13;;;;;;;8.88;84.30;99945.84;5049603;28;20025;-76
2021/11/23 06:28:38;;;;;;;103.90;46.47;;;;;;;9.06;83.71;99943.25;5049844;28;20288;-76
2021/11/23 06:31:03;;;;;;;98.63;43.78;;;;;;;9.05;83.85;99951.31;5043991;28;20057;-77
2021/11/23 06:33:29;;;;;;;92.10;42.30;;;;;;;9.23;83.33;99947.72;5053454;28;20039;-76
2021/11/23 06:35:54;;;;;;;89.35;40.95;;;;;;;9.29;83.07;99947.13;5049522;28;20025;-75
2021/11/23 06:38:20;;;;;;;84.97;40.15;;;;;;;9.20;83.92;99942.75;5054737;28;20224;-76
2021/11/23 06:40:45;;;;;;;76.70;38.83;;;;;;;9.60;82.09;99955.56;5045811;28;20072;-76
2021/11/23 06:43:11;;;;;;;88.45;42.80;;;;;;;9.71;81.40;99953.69;5050871;28;20024;-75
2021/11/23 06:45:38;;;;;;;113.85;47.58;;;;;;;9.79;81.35;99967.81;5049141;28;20033;-75
2021/11/23 06:48:04;;;;;;;154.18;59.17;;;;;;;9.73;81.98;99971.06;5046916;28;20045;-76
2021/11/23 06:50:33;;;;;;;130.27;50.30;;;;;;;9.53;83.02;99978.31;5046593;28;20358;-77
2021/11/23 06:53:01;;;;;;;116.05;50.75;;;;;;;9.56;83.21;99975.38;5051751;28;20037;-75
2021/11/23 06:55:26;;;;;;;96.78;47.50;;;;;;;9.72;82.43;99974.69;5048086;28;20037;-76
2021/11/23 06:57:53;;;;;;;82.63;40.47;;;;;;;9.74;82.78;99977.19;5053779;28;20040;-74
2021/11/23 07:00:18;;;;;;;92.40;40.22;;;;;;;9.91;81.94;99985.13;5049975;28;20025;-74
2021/11/23 07:02:44;;;;;;;84.35;39.55;;;;;;;10.02;81.84;99981.41;5059540;28;20037;-76
2021/11/23 07:05:09;;;;;;;91.90;35.05;;;;;;;10.22;81.72;99990.84;5059412;28;20047;-76
2021/11/23 07:07:35;;;;;;;62.47;31.38;;;;;;;10.16;81.88;99998.53;5051934;28;20045;-76
2021/11/23 07:10:03;;;;;;;59.78;30.05;;;;;;;10.37;81.66;99983.19;5049070;28;20049;-76
2021/11/23 07:12:29;;;;;;;60.60;30.35;;;;;;;10.49;80.94;99991.75;5049854;28;20025;-75
2021/11/23 07:14:54;;;;;;;57.90;29.30;;;;;;;10.71;79.65;99993.88;5055167;28;20055;-75
2021/11/23 07:17:20;;;;;;;56.28;28.20;;;;;;;10.76;79.03;99991.56;5048877;28;20045;-74
2021/11/23 07:19:46;;;;;;;50.05;27.95;;;;;;;10.82;80.16;99998.06;5057102;28;20049;-74
2021/11/23 07:22:11;;;;;;;52.20;26.67;;;;;;;10.95;79.03;99995.81;5049564;28;20021;-76
2021/11/23 07:24:36;;;;;;;47.13;25.75;;;;;;;10.73;79.09;99994.53;5054602;28;20226;-75
2021/11/23 07:27:02;;;;;;;55.08;28.08;;;;;;;10.72;80.14;99992.03;5053033;28;20204;-75
2021/11/23 07:29:27;;;;;;;59.88;29.70;;;;;;;10.90;79.08;99992.81;5058146;28;20215;-76
2021/11/23 07:31:53;;;;;;;65.30;30.83;;;;;;;10.84;79.57;100002.22;5048958;28;20028;-76
2021/11/23 07:34:20;;;;;;;57.28;28.40;;;;;;;11.06;79.17;100002.66;5048989;28;20037;-74
2021/11/23 07:36:45;;;;;;;49.40;26.40;;;;;;;11.23;78.82;100004.38;5047564;28;20066;-74
2021/11/23 07:39:11;;;;;;;51.70;28.67;;;;;;;11.25;78.86;100007.69;5053333;28;20100;-75
2021/11/23 07:41:36;;;;;;;59.25;30.83;;;;;;;11.34;79.05;100005.91;5051384;28;20051;-75
2021/11/23 07:44:05;;;;;;;61.95;31.48;;;;;;;11.39;79.22;100007.09;5052233;28;20299;-76
2021/11/23 07:46:31;;;;;;;49.35;26.17;;;;;;;11.43;78.95;100008.44;5056450;28;20032;-75
2021/11/23 07:48:57;;;;;;;47.72;25.80;;;;;;;11.41;78.54;100018.38;5057557;28;20044;-76
2021/11/23 07:51:23;;;;;;;48.33;27.45;;;;;;;11.55;78.53;100027.56;5055191;28;20520;-75
2021/11/23 07:53:48;;;;;;;76.47;35.25;;;;;;;11.61;77.90;100026.91;5055417;28;20315;-74
2021/11/23 07:56:14;;;;;;;131.23;43.58;;;;;;;11.63;77.65;100032.03;5056180;28;20033;-74
2021/11/23 07:58:39;;;;;;;77.07;32.75;;;;;;;11.41;78.00;100044.03;5055404;28;20045;-77
2021/11/23 08:01:05;;;;;;;158.32;60.38;;;;;;;11.42;78.95;100051.00;5057296;28;20072;-76
2021/11/23 08:03:31;;;;;;;75.25;41.90;;;;;;;11.00;81.11;100050.97;5055757;28;20333;-77
2021/11/23 08:05:57;;;;;;;64.38;36.55;;;;;;;11.00;82.11;100045.69;5055532;28;20108;-78
2021/11/23 08:08:22;;;;;;;56.90;32.70;;;;;;;10.88;81.93;100013.31;5055339;28;20029;-77
2021/11/23 08:10:48;;;;;;;58.00;31.90;;;;;;;11.29;81.96;100045.31;5055034;28;20047;-76
2021/11/23 08:13:14;;;;;;;60.05;31.08;;;;;;;11.28;81.46;100044.50;5055937;28;20028;-74
2021/11/23 08:15:40;;;;;;;55.80;32.08;;;;;;;11.32;81.44;100042.34;5055552;28;20052;-76
2021/11/23 08:18:07;;;;;;;75.38;33.90;;;;;;;11.35;80.83;100044.69;5053398;28;20031;-75
2021/11/23 08:20:33;;;;;;;80.00;36.33;;;;;;;11.32;81.08;100039.69;5056906;28;20041;-74
2021/11/23 08:22:59;;;;;;;68.72;32.63;;;;;;;11.30;81.03;100031.06;5054643;28;20055;-75
2021/11/23 08:25:25;;;;;;;84.95;35.28;;;;;;;11.35;82.20;100034.06;5055092;28;20032;-77
2021/11/23 08:27:51;;;;;;;50.83;29.55;;;;;;;11.16;83.74;100024.56;5056634;28;20048;-78
2021/11/23 08:30:16;;;;;;;54.60;29.73;;;;;;;11.19;82.77;100029.53;5054904;28;20096;-74
2021/11/23 08:32:42;;;;;;;58.53;29.38;;;;;;;11.31;82.57;100022.13;5056320;28;20040;-76
2021/11/23 08:35:08;;;;;;;69.78;32.00;;;;;;;11.34;81.79;100025.28;5054476;28;20045;-78
2021/11/23 08:37:34;;;;;;;114.10;40.00;;;;;;;11.43;81.72;100028.81;5054639;28;20182;-78
2021/11/23 08:39:59;;;;;;;80.03;33.28;;;;;;;11.42;82.85;100035.09;5055415;28;20743;-77
2021/11/23 08:42:26;;;;;;;49.75;26.60;;;;;;;11.49;81.64;100025.53;5055256;28;20036;-76
2021/11/23 08:44:53;;;;;;;93.38;36.15;;;;;;;11.51;80.72;100035.00;5056318;28;20241;-78
2021/11/23 08:47:20;;;;;;;44.72;26.13;;;;;;;11.43;81.08;100027.00;5056403;28;20041;-78
2021/11/23 08:49:47;;;;;;;73.70;34.10;;;;;;;11.62;81.22;100033.88;5054540;28;20107;-77
2021/11/23 08:52:14;;;;;;;47.08;25.88;;;;;;;11.50;81.84;100027.19;5055472;28;20230;-76
2021/11/23 08:54:40;;;;;;;47.78;23.48;;;;;;;11.57;81.29;100035.34;5055566;28;20264;-78
2021/11/23 08:57:07;;;;;;;40.58;24.05;;;;;;;11.58;82.21;100032.53;5054585;28;20070;-77
2021/11/23 08:59:37;;;;;;;42.67;25.05;;;;;;;11.55;81.78;100039.97;5054877;28;20261;-76
2021/11/23 09:02:03;;;;;;;42.42;23.65;;;;;;;11.62;82.88;100033.88;5055596;28;20096;-76
2021/11/23 09:04:30;;;;;;;39.05;24.90;;;;;;;11.74;81.32;100026.44;5053857;28;20330;-74
2021/11/23 09:06:56;;;;;;;43.75;25.20;;;;;;;11.79;80.69;100030.28;5053857;28;20063;-74
2021/11/23 09:09:27;;;;;;;44.03;22.85;;;;;;;11.64;82.25;100034.53;5055124;28;20073;-75
2021/11/23 09:11:53;;;;;;;38.72;24.65;;;;;;;11.78;82.38;100038.41;5054103;28;20032;-74
2021/11/23 09:14:18;;;;;;;40.85;25.15;;;;;;;11.61;82.35;100029.56;5055901;28;20120;-75
2021/11/23 09:16:43;;;;;;;41.38;23.23;;;;;;;11.59;83.05;100034.19;5053886;28;20033;-76
2021/11/23 09:19:09;;;;;;;46.42;24.70;;;;;;;11.51;82.82;100032.34;5051688;28;20025;-76
2021/11/23 09:21:34;;;;;;;57.88;28.77;;;;;;;11.61;83.15;100036.69;5055270;28;20061;-76
2021/11/23 09:24:00;;;;;;;46.65;26.85;;;;;;;11.59;82.57;100034.19;5053692;28;20354;-74
2021/11/23 09:26:26;;;;;;;41.38;25.50;;;;;;;11.62;83.78;100039.19;5055178;28;20024;-74
2021/11/23 09:28:53;;;;;;;50.40;27.13;;;;;;;11.59;82.70;100041.31;5053665;28;20049;-75
2021/11/23 09:31:18;;;;;;;38.67;22.50;;;;;;;11.44;83.21;100041.06;5053623;28;20037;-75
2021/11/23 09:33:44;;;;;;;40.05;23.30;;;;;;;11.52;82.95;100030.53;5056292;28;20087;-77
2021/11/23 09:36:10;;;;;;;43.72;24.60;;;;;;;11.63;82.31;100042.66;5053611;28;20032;-74
2021/11/23 09:38:38;;;;;;;49.65;25.88;;;;;;;11.71;81.75;100032.06;5053006;28;20067;-75
2021/11/23 09:41:04;;;;;;;52.50;25.63;;;;;;;11.92;81.60;100035.13;5055043;28;20083;-76
2021/11/23 09:43:30;;;;;;;53.17;28.13;;;;;;;11.94;81.23;100033.13;5053852;28;20293;-76
2021/11/23 09:45:56;;;;;;;65.15;28.75;;;;;;;12.04;80.52;100027.69;5055405;28;20233;-76
2021/11/23 09:48:22;;;;;;;62.33;29.27;;;;;;;12.03;79.68;100032.16;5053313;28;20389;-76
2021/11/23 09:50:50;;;;;;;54.80;28.00;;;;;;;12.03;79.30;100033.97;5052570;28;20106;-75
2021/11/23 09:53:18;;;;;;;47.80;24.38;;;;;;;12.15;78.53;100033.50;5054325;28;20029;-74
2021/11/23 09:55:44;;;;;;;38.53;21.65;;;;;;;12.34;77.23;100029.69;5053512;28;20041;-76
2021/11/23 09:58:10;;;;;;;44.13;23.63;;;;;;;12.58;76.75;100026.19;5054324;28;20099;-77
2021/11/23 10:00:45;;;;;;;39.42;21.02;;;;;;;12.55;75.85;100023.06;5053411;28;20033;-76
2021/11/23 10:03:31;;;;;;;34.35;18.42;;;;;;;12.45;76.31;100029.34;5052785;28;20021;-77
2021/11/23 10:06:25;;;;;;;35.72;18.95;;;;;;;12.55;75.31;100023.88;5051635;28;20123;-77
2021/11/23 10:08:53;;;;;;;32.50;19.02;;;;;;;12.42;75.26;100012.91;5054199;28;20027;-76
2021/11/23 10:11:27;;;;;;;33.90;20.50;;;;;;;12.42;76.12;100007.59;5053769;28;20063;-75
2021/11/23 10:13:58;;;;;;;59.35;25.55;;;;;;;12.26;76.17;100007.59;5053687;28;20029;-77
2021/11/23 10:16:35;;;;;;;69.68;27.02;;;;;;;12.37;75.46;100010.75;5054602;28;20024;-77
2021/11/23 10:19:07;;;;;;;37.45;21.65;;;;;;;12.38;76.07;100015.06;5052320;28;20265;-77
2021/11/23 10:21:33;;;;;;;35.25;20.00;;;;;;;12.55;76.34;100015.09;5054434;28;20040;-77
2021/11/23 10:23:58;;;;;;;33.03;19.48;;;;;;;12.54;76.53;100011.59;5052430;28;20211;-77
2021/11/23 10:26:31;;;;;;;37.33;20.98;;;;;;;12.79;75.97;100009.72;5054544;28;20033;-76
2021/11/23 10:29:01;;;;;;;40.15;20.90;;;;;;;12.84;75.06;100018.00;5054646;28;20265;-77
2021/11/23 10:31:45;;;;;;;37.70;19.52;;;;;;;12.85;75.29;100011.69;5053374;28;20076;-77
2021/11/23 10:34:16;;;;;;;56.70;23.00;;;;;;;12.64;75.97;100017.56;5053042;28;20037;-77
2021/11/23 10:36:44;;;;;;;60.88;26.77;;;;;;;12.53;75.67;100015.25;5051587;28;20025;-76
2021/11/23 10:39:15;;;;;;;47.97;22.15;;;;;;;12.39;76.13;100011.41;5052074;28;20753;-77
2021/11/23 10:41:48;;;;;;;36.55;20.90;;;;;;;12.37;76.61;100016.06;5054277;28;20024;-78
2021/11/23 10:44:27;;;;;;;37.85;21.90;;;;;;;12.58;76.06;100006.78;5054218;28;20392;-76
2021/11/23 10:46:58;;;;;;;37.72;20.35;;;;;;;12.66;76.10;100007.59;5053455;28;20070;-76
2021/11/23 10:49:34;;;;;;;32.78;20.08;;;;;;;12.66;76.04;100006.75;5051902;28;20044;-77
2021/11/23 10:52:02;;;;;;;40.25;21.33;;;;;;;12.71;75.94;99993.81;5052763;28;20040;-78
2021/11/23 10:54:32;;;;;;;37.75;21.05;;;;;;;12.78;75.97;100003.59;5053956;28;20029;-75
2021/11/23 10:57:03;;;;;;;59.42;25.20;;;;;;;12.88;75.88;99994.59;5052860;28;20346;-75
2021/11/23 10:59:28;;;;;;;283.27;72.45;;;;;;;12.88;74.45;99997.25;5052582;28;20036;-77
2021/11/23 11:01:55;;;;;;;93.05;35.67;;;;;;;12.97;74.88;99996.22;5054504;28;20028;-77
2021/11/23 11:04:22;;;;;;;70.75;26.98;;;;;;;12.93;74.95;99994.91;5051987;28;20025;-77
2021/11/23 11:06:49;;;;;;;65.35;28.73;;;;;;;12.83;75.55;99994.28;5054247;28;20071;-76
2021/11/23 11:09:18;;;;;;;53.90;24.52;;;;;;;12.91;76.07;99997.72;5053601;28;20036;-76
2021/11/23 11:11:43;;;;;;;67.90;44.17;;;;;;;12.73;76.50;99989.97;5051834;28;20332;-76
2021/11/23 11:14:12;;;;;;;53.75;28.23;;;;;;;12.76;76.77;99999.44;5052828;28;20043;-76